Time;durP1;ratioP1;P1;durP2;ratioP2;P2;SDS_P1;SDS_P2;PMS_P1;PMS_P2;Temp;Humidity;BMP_temperature;BMP_pressure;BME280_temperature;BME280_humidity;BME280_pressure;Samples;Min_cycle;Max_cycle;Signal;HPM_P1;HPM_P2
2023/03/20 00:00:07;;;;;;;;;;;;;;;18.30;33.10;101247.63;101422;1317;72567;-83
2023/03/20 00:02:33;;;;;;;;;;;;;;;18.30;33.10;101243.89;101401;1317;75691;-83
2023/03/20 00:04:58;;;;;;;;;;;;;;;18.29;33.13;101239.29;101648;1315;62414;-83
2023/03/20 00:07:24;;;;;;;;;;;;;;;18.29;33.11;101234.48;102339;1314;62162;-83
2023/03/20 00:09:50;;;;;;;;;;;;;;;18.29;33.07;101231.44;102877;1311;62088;-82
2023/03/20 00:12:17;;;;;;;;;;;;;;;18.29;33.11;101228.98;102710;1311;62312;-82
2023/03/20 00:14:43;;;;;;;;;;;;;;;18.29;33.10;101229.66;101991;1311;63369;-82
2023/03/20 00:17:09;;;;;;;;;;;;;;;18.29;33.13;101229.64;101923;1311;62223;-82
2023/03/20 00:19:35;;;;;;;;;;;;;;;18.30;33.11;101223.23;101767;1312;62292;-82
2023/03/20 00:22:01;;;;;;;;;;;;;;;18.29;33.15;101216.85;101898;1317;62229;-83
2023/03/20 00:24:26;;;;;;;;;;;;;;;18.29;33.15;101211.84;101935;1310;74207;-83
2023/03/20 00:26:55;;;;;;;;;;;;;;;18.29;33.04;101205.09;101842;1310;62233;-83
2023/03/20 00:29:25;;;;;;;;;;;;;;;18.29;33.09;101200.48;101916;1311;62827;-83
2023/03/20 00:31:50;;;;;;;;;;;;;;;18.28;33.12;101197.30;101822;1315;72554;-83
2023/03/20 00:34:18;;;;;;;;;;;;;;;18.27;33.10;101196.80;101856;1311;62140;-82
2023/03/20 00:36:46;;;;;;;;;;;;;;;18.27;33.10;101192.69;101931;1311;62115;-83
2023/03/20 00:39:12;;;;;;;;;;;;;;;18.27;33.12;101191.81;101950;1311;62281;-83
2023/03/20 00:41:42;;;;;;;;;;;;;;;18.26;33.05;101186.86;101723;1314;62695;-83
2023/03/20 00:44:28;;;;;;;;;;;;;;;18.26;33.13;101181.33;101826;1310;76263;-83
2023/03/20 00:46:54;;;;;;;;;;;;;;;18.25;33.07;101177.46;101870;1311;62139;-83
2023/03/20 00:49:27;;;;;;;;;;;;;;;18.25;33.13;101178.54;101845;1311;63101;-83
2023/03/20 00:51:53;;;;;;;;;;;;;;;18.25;33.03;101175.67;101899;1310;73605;-83
2023/03/20 00:54:21;;;;;;;;;;;;;;;18.24;33.10;101174.67;101820;1312;62241;-82
2023/03/20 00:56:57;;;;;;;;;;;;;;;18.24;33.11;101172.20;101907;1310;62210;-82
2023/03/20 00:59:23;;;;;;;;;;;;;;;18.24;33.08;101171.64;101876;1311;62143;-83
2023/03/20 01:01:51;;;;;;;;;;;;;;;18.24;33.17;101171.67;101898;1313;72540;-83
2023/03/20 01:04:17;;;;;;;;;;;;;;;18.23;33.07;101166.71;101949;1314;62474;-83
2023/03/20 01:06:43;;;;;;;;;;;;;;;18.24;33.06;101167.05;101861;1316;63294;-84
2023/03/20 01:09:09;;;;;;;;;;;;;;;18.23;33.09;101160.66;101916;1311;62220;-84
2023/03/20 01:11:35;;;;;;;;;;;;;;;18.23;33.05;101158.53;102049;1311;62143;-83
2023/03/20 01:14:01;;;;;;;;;;;;;;;18.22;33.10;101155.53;102225;1310;62256;-83
2023/03/20 01:16:32;;;;;;;;;;;;;;;18.22;33.12;101152.86;101973;1314;62218;-83
2023/03/20 01:18:57;;;;;;;;;;;;;;;18.22;33.07;101151.27;102104;1311;62239;-85
2023/03/20 01:21:23;;;;;;;;;;;;;;;18.22;33.15;101156.05;102119;1314;62988;-84
2023/03/20 01:24:19;;;;;;;;;;;;;;;18.22;33.06;101156.09;101881;1317;73011;-82
2023/03/20 01:26:45;;;;;;;;;;;;;;;18.22;33.10;101152.73;101195;1316;74384;-82
2023/03/20 01:29:14;;;;;;;;;;;;;;;18.22;33.20;101153.61;101388;1320;62156;-82
2023/03/20 01:31:40;;;;;;;;;;;;;;;18.21;33.05;101152.73;101529;1317;62435;-82
2023/03/20 01:34:08;;;;;;;;;;;;;;;18.22;33.09;101151.30;101586;1320;72625;-82
2023/03/20 01:36:33;;;;;;;;;;;;;;;18.21;33.15;101147.39;101571;1317;75371;-82
2023/03/20 01:38:59;;;;;;;;;;;;;;;18.22;33.18;101145.41;101549;1317;62130;-82
2023/03/20 01:41:25;;;;;;;;;;;;;;;18.21;33.07;101148.11;101565;1320;62941;-82
2023/03/20 01:43:51;;;;;;;;;;;;;;;18.22;33.15;101148.98;101517;1320;62338;-82
2023/03/20 01:46:22;;;;;;;;;;;;;;;18.21;33.11;101149.89;101265;1320;62339;-83
2023/03/20 01:48:56;;;;;;;;;;;;;;;18.21;33.11;101144.89;101270;1318;62161;-83
2023/03/20 01:51:31;;;;;;;;;;;;;;;18.21;33.09;101144.39;101319;1317;62267;-83
2023/03/20 01:54:00;;;;;;;;;;;;;;;18.21;33.12;101145.45;101307;1317;72543;-84
2023/03/20 01:56:26;;;;;;;;;;;;;;;18.20;33.10;101144.23;101319;1317;76364;-83
2023/03/20 01:58:53;;;;;;;;;;;;;;;18.21;33.05;101142.98;101212;1317;62238;-83
2023/03/20 02:01:19;;;;;;;;;;;;;;;18.20;33.11;101143.01;101322;1316;62414;-83
2023/03/20 02:03:47;;;;;;;;;;;;;;;18.19;33.09;101138.94;101449;1311;62188;-83
2023/03/20 02:06:13;;;;;;;;;;;;;;;18.19;33.12;101136.83;101849;1311;75521;-83
2023/03/20 02:08:46;;;;;;;;;;;;;;;18.19;33.03;101137.92;101983;1311;62261;-84
2023/03/20 02:11:13;;;;;;;;;;;;;;;18.19;33.02;101137.91;101950;1312;62274;-82
2023/03/20 02:13:39;;;;;;;;;;;;;;;18.19;33.07;101136.51;101976;1311;62174;-83
2023/03/20 02:16:08;;;;;;;;;;;;;;;18.18;32.98;101139.76;101956;1312;62238;-83
2023/03/20 02:18:34;;;;;;;;;;;;;;;18.17;33.09;101136.02;101987;1311;62136;-83
2023/03/20 02:21:07;;;;;;;;;;;;;;;18.17;33.02;101144.23;101940;1312;62654;-83
2023/03/20 02:23:51;;;;;;;;;;;;;;;18.17;33.00;101144.77;102010;1311;72452;-83
2023/03/20 02:26:30;;;;;;;;;;;;;;;18.17;33.08;101144.06;102034;1311;75235;-83
2023/03/20 02:29:01;;;;;;;;;;;;;;;18.17;33.11;101140.33;102472;1312;62152;-83
2023/03/20 02:31:30;;;;;;;;;;;;;;;18.17;33.03;101142.31;103080;1311;62175;-82
2023/03/20 02:34:16;;;;;;;;;;;;;;;18.16;33.02;101139.47;102352;1311;72560;-83
2023/03/20 02:37:01;;;;;;;;;;;;;;;18.17;33.02;101142.30;101999;1310;76236;-83
2023/03/20 02:39:34;;;;;;;;;;;;;;;18.16;33.09;101143.05;101969;1311;62145;-82
2023/03/20 02:42:13;;;;;;;;;;;;;;;18.17;33.06;101142.67;101998;1314;62163;-83
2023/03/20 02:44:47;;;;;;;;;;;;;;;18.16;33.11;101139.64;102037;1312;72493;-83
2023/03/20 02:47:21;;;;;;;;;;;;;;;18.16;32.99;101136.30;101957;1314;75618;-83
2023/03/20 02:49:54;;;;;;;;;;;;;;;18.15;33.05;101131.33;101940;1311;62043;-83
2023/03/20 02:52:32;;;;;;;;;;;;;;;18.15;33.15;101133.50;101941;1310;62225;-82
2023/03/20 02:55:00;;;;;;;;;;;;;;;18.15;33.05;101135.81;101877;1310;72455;-82
2023/03/20 02:57:42;;;;;;;;;;;;;;;18.15;33.07;101136.34;101886;1311;75574;-83
2023/03/20 03:00:09;;;;;;;;;;;;;;;18.14;33.01;101139.58;101731;1315;63342;-83
2023/03/20 03:02:39;;;;;;;;;;;;;;;18.14;33.09;101134.98;101881;1311;62111;-83
2023/03/20 03:05:11;;;;;;;;;;;;;;;18.13;32.96;101131.61;101851;1311;72357;-83
2023/03/20 03:07:37;;;;;;;;;;;;;;;18.13;33.07;101139.11;102000;1313;75678;-83
2023/03/20 03:10:05;;;;;;;;;;;;;;;18.13;32.98;101139.83;101934;1312;62235;-83
2023/03/20 03:12:40;;;;;;;;;;;;;;;18.12;32.99;101139.31;101953;1310;62153;-83
2023/03/20 03:15:07;;;;;;;;;;;;;;;18.13;33.02;101140.39;101921;1311;72560;-83
2023/03/20 03:17:33;;;;;;;;;;;;;;;18.12;33.13;101137.02;101937;1312;76196;-83
2023/03/20 03:20:04;;;;;;;;;;;;;;;18.12;33.09;101139.54;101813;1311;63374;-83
2023/03/20 03:22:31;;;;;;;;;;;;;;;18.12;33.02;101139.02;101723;1311;62268;-82
2023/03/20 03:24:56;;;;;;;;;;;;;;;18.11;33.07;101134.77;101687;1312;62306;-83
2023/03/20 03:27:27;;;;;;;;;;;;;;;18.11;32.98;101133.90;101700;1311;62248;-83
2023/03/20 03:29:54;;;;;;;;;;;;;;;18.10;32.99;101133.73;101708;1316;62262;-83
2023/03/20 03:32:22;;;;;;;;;;;;;;;18.10;33.05;101135.15;101792;1315;62280;-83
2023/03/20 03:34:49;;;;;;;;;;;;;;;18.10;33.08;101132.34;101685;1311;72444;-83
2023/03/20 03:37:21;;;;;;;;;;;;;;;18.10;32.99;101128.77;101433;1311;75163;-83
2023/03/20 03:39:51;;;;;;;;;;;;;;;18.09;33.08;101125.75;101648;1312;62357;-83
2023/03/20 03:42:36;;;;;;;;;;;;;;;18.09;33.08;101127.41;101657;1311;62303;-83
2023/03/20 03:45:12;;;;;;;;;;;;;;;18.08;33.02;101135.24;101748;1311;72393;-82
2023/03/20 03:47:39;;;;;;;;;;;;;;;18.08;33.02;101134.36;101673;1311;76354;-83
2023/03/20 03:50:13;;;;;;;;;;;;;;;18.08;33.01;101134.39;101776;1311;62160;-84
2023/03/20 03:52:39;;;;;;;;;;;;;;;18.08;33.00;101138.30;101600;1311;62278;-83
2023/03/20 03:55:08;;;;;;;;;;;;;;;18.08;33.00;101138.30;101811;1311;63061;-83
2023/03/20 03:57:36;;;;;;;;;;;;;;;18.08;32.96;101142.06;102049;1311;75228;-83
2023/03/20 04:00:04;;;;;;;;;;;;;;;18.07;32.98;101141.90;101743;1311;62127;-82
2023/03/20 04:02:31;;;;;;;;;;;;;;;18.07;33.27;101141.38;101936;1312;62222;-84
2023/03/20 04:04:57;;;;;;;;;;;;;;;18.07;33.02;101140.66;101844;1311;72682;-84
2023/03/20 04:07:25;;;;;;;;;;;;;;;18.07;33.02;101138.36;101698;1311;62282;-83
2023/03/20 04:09:50;;;;;;;;;;;;;;;18.06;33.01;101134.29;101904;1312;62855;-84
2023/03/20 04:12:32;;;;;;;;;;;;;;;18.06;33.08;101134.28;101722;1317;62178;-83
2023/03/20 04:14:58;;;;;;;;;;;;;;;18.06;33.00;101135.55;101670;1316;72552;-84
2023/03/20 04:17:24;;;;;;;;;;;;;;;18.06;33.06;101137.89;101879;1312;62216;-84
2023/03/20 04:19:50;;;;;;;;;;;;;;;18.05;33.01;101140.39;101928;1312;62209;-83
2023/03/20 04:22:16;;;;;;;;;;;;;;;18.05;32.97;101141.13;101831;1315;62281;-84
2023/03/20 04:24:42;;;;;;;;;;;;;;;18.05;33.00;101142.55;101704;1311;63859;-83
2023/03/20 04:27:07;;;;;;;;;;;;;;;18.05;33.08;101141.48;101652;1317;62391;-84
2023/03/20 04:29:33;;;;;;;;;;;;;;;18.05;33.07;101138.63;101652;1314;63060;-83
2023/03/20 04:31:59;;;;;;;;;;;;;;;18.05;32.99;101142.04;101677;1317;62902;-83
2023/03/20 04:34:24;;;;;;;;;;;;;;;18.04;33.08;101138.89;101713;1314;63318;-83
2023/03/20 04:36:50;;;;;;;;;;;;;;;18.04;32.89;101139.43;101564;1317;62238;-84
2023/03/20 04:39:16;;;;;;;;;;;;;;;18.02;33.11;101133.29;101843;1314;62601;-84
2023/03/20 04:41:41;;;;;;;;;;;;;;;17.99;33.10;101134.71;101754;1314;62273;-83
2023/03/20 04:44:07;;;;;;;;;;;;;;;17.96;33.08;101138.23;102157;1311;62233;-84
2023/03/20 04:46:33;;;;;;;;;;;;;;;17.95;33.14;101145.77;102416;1314;63245;-83
2023/03/20 04:48:59;;;;;;;;;;;;;;;17.92;33.20;101150.70;102529;1311;61947;-82
2023/03/20 04:51:27;;;;;;;;;;;;;;;17.86;33.07;101154.20;103150;1310;75153;-82
2023/03/20 04:53:54;;;;;;;;;;;;;;;17.81;33.11;101157.82;103316;1310;62220;-83
2023/03/20 04:56:19;;;;;;;;;;;;;;;17.77;33.08;101159.86;102317;1311;62209;-84
2023/03/20 04:58:45;;;;;;;;;;;;;;;17.73;33.07;101163.92;102084;1315;62275;-84
2023/03/20 05:01:11;;;;;;;;;;;;;;;17.72;33.04;101163.08;102087;1311;63110;-84
2023/03/20 05:03:38;;;;;;;;;;;;;;;17.73;33.11;101163.39;101965;1311;62673;-84
2023/03/20 05:06:03;;;;;;;;;;;;;;;17.75;33.02;101161.86;102043;1309;62296;-85
2023/03/20 05:08:29;;;;;;;;;;;;;;;17.76;32.97;101163.59;102281;1309;62239;-84
2023/03/20 05:10:56;;;;;;;;;;;;;;;17.77;32.95;101166.06;102228;1308;72580;-83
2023/03/20 05:13:21;;;;;;;;;;;;;;;17.78;32.90;101165.14;101987;1309;76223;-82
2023/03/20 05:15:47;;;;;;;;;;;;;;;17.79;32.92;101165.77;102061;1311;62228;-82
2023/03/20 05:18:13;;;;;;;;;;;;;;;17.81;32.83;101165.35;102246;1308;62219;-84
2023/03/20 05:20:38;;;;;;;;;;;;;;;17.82;32.87;101164.22;102252;1314;62232;-84
2023/03/20 05:23:06;;;;;;;;;;;;;;;17.83;32.78;101166.30;102085;1314;62184;-83
2023/03/20 05:25:34;;;;;;;;;;;;;;;17.84;32.74;101164.61;102234;1310;62175;-82
2023/03/20 05:28:00;;;;;;;;;;;;;;;17.87;32.76;101161.06;102148;1308;62312;-83
2023/03/20 05:30:28;;;;;;;;;;;;;;;17.90;32.73;101161.65;102064;1310;62244;-84
2023/03/20 05:32:54;;;;;;;;;;;;;;;17.94;32.63;101163.60;102245;1313;75066;-83
2023/03/20 05:35:19;;;;;;;;;;;;;;;17.98;32.57;101163.59;102235;1309;62196;-83
2023/03/20 05:37:45;;;;;;;;;;;;;;;18.01;32.57;101172.00;102127;1314;62184;-85
2023/03/20 05:40:11;;;;;;;;;;;;;;;18.04;32.57;101175.39;102167;1308;62163;-85
2023/03/20 05:42:37;;;;;;;;;;;;;;;18.07;32.59;101175.07;102233;1312;62231;-84
2023/03/20 05:45:07;;;;;;;;;;;;;;;18.10;32.52;101172.73;101970;1311;62327;-85
2023/03/20 05:47:33;;;;;;;;;;;;;;;18.14;32.55;101180.55;101861;1311;62044;-84
2023/03/20 05:49:59;;;;;;;;;;;;;;;18.17;32.52;101183.80;101958;1312;63087;-83
2023/03/20 05:52:25;;;;;;;;;;;;;;;18.16;32.68;101180.09;102167;1314;62239;-83
2023/03/20 05:54:53;;;;;;;;;;;;;;;18.15;32.65;101179.27;102203;1308;62222;-84
2023/03/20 05:57:19;;;;;;;;;;;;;;;18.13;32.56;101178.11;101951;1311;62066;-83
2023/03/20 05:59:45;;;;;;;;;;;;;;;18.12;32.58;101179.63;102110;1311;62242;-83
2023/03/20 06:02:10;;;;;;;;;;;;;;;18.11;32.59;101181.10;102138;1317;62292;-83
2023/03/20 06:04:36;;;;;;;;;;;;;;;18.09;32.65;101180.27;102341;1312;62232;-83
2023/03/20 06:07:03;;;;;;;;;;;;;;;18.07;32.70;101180.01;101973;1311;62361;-84
2023/03/20 06:09:29;;;;;;;;;;;;;;;18.07;32.74;101173.81;102332;1313;62424;-84
2023/03/20 06:11:55;;;;;;;;;;;;;;;18.06;32.83;101171.52;102184;1311;62229;-83
2023/03/20 06:14:21;;;;;;;;;;;;;;;18.06;32.75;101169.38;102064;1317;62877;-84
2023/03/20 06:16:46;;;;;;;;;;;;;;;18.06;32.78;101166.39;102379;1311;76272;-82
2023/03/20 06:19:12;;;;;;;;;;;;;;;18.05;32.80;101166.62;102088;1314;62254;-83
2023/03/20 06:21:38;;;;;;;;;;;;;;;18.03;32.83;101167.40;102130;1308;62310;-83
2023/03/20 06:24:04;;;;;;;;;;;;;;;18.02;32.80;101171.59;102033;1314;62337;-83
2023/03/20 06:26:30;;;;;;;;;;;;;;;18.00;32.93;101170.05;101929;1309;62236;-83
2023/03/20 06:28:55;;;;;;;;;;;;;;;17.99;32.93;101172.64;101950;1311;62705;-83
2023/03/20 06:31:21;;;;;;;;;;;;;;;17.97;32.94;101171.47;101962;1311;62264;-83
2023/03/20 06:33:47;;;;;;;;;;;;;;;17.96;32.98;101172.80;102136;1311;62238;-83
2023/03/20 06:36:13;;;;;;;;;;;;;;;17.95;33.09;101175.85;102070;1308;62220;-83
2023/03/20 06:38:38;;;;;;;;;;;;;;;17.94;33.05;101180.71;101887;1314;62238;-83
2023/03/20 06:41:05;;;;;;;;;;;;;;;17.93;33.18;101182.71;101899;1314;63057;-83
2023/03/20 06:43:31;;;;;;;;;;;;;;;17.92;33.31;101182.73;102004;1311;62090;-83
2023/03/20 06:45:57;;;;;;;;;;;;;;;17.92;33.46;101182.77;102095;1311;62071;-83
2023/03/20 06:48:22;;;;;;;;;;;;;;;17.91;33.48;101186.52;102332;1308;62232;-83
2023/03/20 06:50:48;;;;;;;;;;;;;;;17.90;33.53;101184.23;102013;1312;62311;-82
2023/03/20 06:53:14;;;;;;;;;;;;;;;17.90;33.66;101188.55;101822;1314;62120;-82
2023/03/20 06:55:50;;;;;;;;;;;;;;;17.89;33.71;101191.41;101737;1311;62098;-82
2023/03/20 06:58:16;;;;;;;;;;;;;;;17.90;33.73;101189.60;101852;1311;73813;-83
2023/03/20 07:00:42;;;;;;;;;;;;;;;17.91;33.80;101191.71;101795;1312;62251;-82
2023/03/20 07:03:07;;;;;;;;;;;;;;;17.91;33.83;101191.36;101328;1313;699053;-82
2023/03/20 07:05:34;;;;;;;;;;;;;;;17.92;33.84;101189.00;101959;1311;62235;-83
2023/03/20 07:07:59;;;;;;;;;;;;;;;17.92;33.91;101189.16;101975;1311;62327;-84
2023/03/20 07:10:26;;;;;;;;;;;;;;;17.93;33.88;101189.99;102118;1311;62187;-83
2023/03/20 07:12:52;;;;;;;;;;;;;;;17.94;33.98;101190.33;102500;1312;62549;-84
2023/03/20 07:15:18;;;;;;;;;;;;;;;17.94;33.93;101192.27;101861;1317;62286;-83
2023/03/20 07:17:43;;;;;;;;;;;;;;;17.95;34.02;101189.73;102058;1315;63006;-83
2023/03/20 07:20:17;;;;;;;;;;;;;;;17.96;33.92;101187.57;101858;1314;62175;-83
2023/03/20 07:22:43;;;;;;;;;;;;;;;17.96;33.94;101187.93;102131;1312;76405;-83
2023/03/20 07:25:12;;;;;;;;;;;;;;;17.95;33.87;101187.95;101977;1311;62752;-83
2023/03/20 07:27:38;;;;;;;;;;;;;;;17.95;33.94;101185.98;102039;1308;62135;-83
2023/03/20 07:30:05;;;;;;;;;;;;;;;17.95;33.85;101183.32;102023;1311;62632;-83
2023/03/20 07:32:31;;;;;;;;;;;;;;;17.95;33.75;101182.61;102171;1311;75114;-82
2023/03/20 07:34:57;;;;;;;;;;;;;;;17.96;33.71;101180.65;102151;1311;62302;-83
2023/03/20 07:37:23;;;;;;;;;;;;;;;17.96;33.68;101180.83;102065;1308;62318;-83
2023/03/20 07:39:48;;;;;;;;;;;;;;;17.97;33.66;101177.02;102167;1314;62154;-83
2023/03/20 07:42:16;;;;;;;;;;;;;;;17.98;33.60;101178.55;102173;1309;62245;-82
2023/03/20 07:44:42;;;;;;;;;;;;;;;18.00;33.70;101176.51;102147;1314;62249;-83
2023/03/20 07:47:08;;;;;;;;;;;;;;;18.01;33.58;101176.61;102142;1312;62209;-81
2023/03/20 07:49:34;;;;;;;;;;;;;;;18.03;33.67;101178.80;102047;1311;62123;-83
2023/03/20 07:51:59;;;;;;;;;;;;;;;18.04;33.70;101177.34;101961;1317;62094;-83
2023/03/20 07:54:25;;;;;;;;;;;;;;;18.04;33.63;101172.52;101793;1312;74452;-83
2023/03/20 07:56:51;;;;;;;;;;;;;;;18.05;33.67;101169.23;102128;1311;62603;-83
2023/03/20 07:59:17;;;;;;;;;;;;;;;18.07;33.59;101172.58;102058;1309;62144;-83
2023/03/20 08:01:43;;;;;;;;;;;;;;;18.08;33.60;101174.98;102098;1314;63751;-84
2023/03/20 08:04:09;;;;;;;;;;;;;;;18.09;33.50;101166.23;102039;1308;62237;-83
2023/03/20 08:06:38;;;;;;;;;;;;;;;18.09;33.49;101171.89;102032;1314;62158;-83
2023/03/20 08:09:04;;;;;;;;;;;;;;;18.10;33.50;101171.30;101861;1311;62296;-83
2023/03/20 08:11:34;;;;;;;;;;;;;;;18.12;33.52;101166.77;101828;1314;62242;-83
2023/03/20 08:14:00;;;;;;;;;;;;;;;18.13;33.49;101175.09;102004;1308;75204;-84
2023/03/20 08:16:25;;;;;;;;;;;;;;;18.13;33.47;101177.02;101940;1311;62249;-83
2023/03/20 08:18:52;;;;;;;;;;;;;;;18.15;33.43;101176.08;102274;1309;62255;-84
2023/03/20 08:21:18;;;;;;;;;;;;;;;18.16;33.51;101175.66;102166;1308;62637;-83
2023/03/20 08:23:44;;;;;;;;;;;;;;;18.16;33.46;101176.34;102132;1314;62243;-83
2023/03/20 08:26:10;;;;;;;;;;;;;;;18.18;33.41;101174.69;102415;1314;62197;-82
2023/03/20 08:28:36;;;;;;;;;;;;;;;18.18;33.41;101175.55;102169;1309;62349;-83
2023/03/20 08:31:02;;;;;;;;;;;;;;;18.19;33.44;101177.98;102046;1311;63292;-83
2023/03/20 08:33:28;;;;;;;;;;;;;;;18.19;33.36;101179.03;101966;1311;74080;-83
2023/03/20 08:35:55;;;;;;;;;;;;;;;18.19;33.39;101180.14;102101;1311;62954;-82
2023/03/20 08:38:20;;;;;;;;;;;;;;;18.18;33.43;101184.24;101966;1311;62127;-83
2023/03/20 08:40:46;;;;;;;;;;;;;;;18.19;33.44;101184.23;102228;1314;63283;-82
2023/03/20 08:43:11;;;;;;;;;;;;;;;18.19;33.39;101185.79;102215;1312;62241;-82
2023/03/20 08:45:37;;;;;;;;;;;;;;;18.21;33.41;101181.97;102204;1311;62143;-83
2023/03/20 08:48:04;;;;;;;;;;;;;;;18.23;33.35;101187.02;102019;1314;75436;-83
2023/03/20 08:50:29;;;;;;;;;;;;;;;18.25;33.38;101182.61;102101;1311;62154;-83
2023/03/20 08:52:55;;;;;;;;;;;;;;;18.28;33.31;101181.23;102092;1308;62149;-82
2023/03/20 08:55:21;;;;;;;;;;;;;;;18.29;33.41;101179.23;102309;1311;62200;-83
2023/03/20 08:57:46;;;;;;;;;;;;;;;18.30;33.34;101181.14;102019;1311;62155;-82
2023/03/20 09:00:13;;;;;;;;;;;;;;;18.29;33.25;101177.29;102198;1311;62322;-83
2023/03/20 09:02:39;;;;;;;;;;;;;;;18.17;33.31;101168.64;102191;1314;62252;-83
2023/03/20 09:05:06;;;;;;;;;;;;;;;18.12;33.34;101168.20;102329;1311;62315;-83
2023/03/20 09:07:31;;;;;;;;;;;;;;;18.13;33.44;101165.10;102271;1316;72710;-82
2023/03/20 09:09:57;;;;;;;;;;;;;;;18.15;33.56;101166.43;102216;1313;62411;-82
2023/03/20 09:12:23;;;;;;;;;;;;;;;18.17;33.40;101163.86;102595;1311;62123;-82
2023/03/20 09:14:48;;;;;;;;;;;;;;;18.18;33.49;101162.20;102917;1317;62296;-83
2023/03/20 09:17:16;;;;;;;;;;;;;;;18.18;33.48;101162.52;102780;1312;62226;-83
2023/03/20 09:19:43;;;;;;;;;;;;;;;18.14;33.49;101159.88;102663;1315;72729;-83
2023/03/20 09:22:12;;;;;;;;;;;;;;;18.15;33.54;101160.21;102878;1311;75275;-83
2023/03/20 09:24:37;;;;;;;;;;;;;;;18.15;33.64;101158.60;103236;1313;62219;-83
2023/03/20 09:27:03;;;;;;;;;;;;;;;18.15;33.69;101158.94;102552;1311;60730;-83
2023/03/20 09:29:28;;;;;;;;;;;;;;;18.17;33.61;101158.33;102912;1312;62139;-82
2023/03/20 09:31:54;;;;;;;;;;;;;;;18.18;33.74;101155.95;102786;1314;62215;-82
2023/03/20 09:34:20;;;;;;;;;;;;;;;18.21;33.67;101156.14;102644;1313;61999;-81
2023/03/20 09:36:45;;;;;;;;;;;;;;;18.25;33.71;101157.53;102654;1314;60036;-81
2023/03/20 09:39:11;;;;;;;;;;;;;;;18.28;33.73;101154.52;102516;1313;61180;-82
2023/03/20 09:41:36;;;;;;;;;;;;;;;18.31;33.73;101151.89;102264;1317;62136;-82
2023/03/20 09:44:05;;;;;;;;;;;;;;;18.32;33.65;101150.40;102628;1315;62312;-83
2023/03/20 09:46:48;;;;;;;;;;;;;;;18.35;33.86;101144.55;102625;1312;62316;-82
2023/03/20 09:49:24;;;;;;;;;;;;;;;18.37;33.86;101142.10;102487;1311;62241;-84
2023/03/20 09:51:50;;;;;;;;;;;;;;;18.40;33.86;101138.57;102655;1311;72635;-84
2023/03/20 09:54:25;;;;;;;;;;;;;;;18.43;33.90;101130.55;103072;1311;62133;-82
2023/03/20 09:56:51;;;;;;;;;;;;;;;18.46;33.85;101126.13;103131;1311;62311;-82
2023/03/20 09:59:16;;;;;;;;;;;;;;;18.46;33.82;101122.75;103143;1311;62247;-81
2023/03/20 10:01:42;;;;;;;;;;;;;;;18.45;33.89;101125.45;103101;1311;61962;-85
2023/03/20 10:04:07;;;;;;;;;;;;;;;18.45;33.97;101125.27;103277;1312;62129;-84
2023/03/20 10:06:33;;;;;;;;;;;;;;;18.41;33.93;101121.73;102920;1316;60640;-82
2023/03/20 10:08:59;;;;;;;;;;;;;;;18.41;33.91;101118.38;103105;1309;60807;-82
2023/03/20 10:11:35;;;;;;;;;;;;;;;18.40;34.10;101115.91;103100;1311;62214;-81
2023/03/20 10:14:06;;;;;;;;;;;;;;;18.42;33.98;101112.25;103035;1314;72709;-82
2023/03/20 10:17:03;;;;;;;;;;;;;;;18.42;34.07;101106.50;103017;1308;75287;-82
2023/03/20 10:19:29;;;;;;;;;;;;;;;18.45;34.00;101101.20;102221;1317;61402;-82
2023/03/20 10:22:01;;;;;;;;;;;;;;;18.48;34.03;101100.55;102989;1320;61363;-82
2023/03/20 10:24:40;;;;;;;;;;;;;;;18.50;34.03;101098.96;102092;1317;73719;-82
2023/03/20 10:27:26;;;;;;;;;;;;;;;18.53;33.98;101091.33;102273;1317;75441;-82
2023/03/20 10:29:55;;;;;;;;;;;;;;;18.56;33.95;101088.65;102322;1317;66102;-83
2023/03/20 10:32:27;;;;;;;;;;;;;;;18.59;34.02;101086.38;102593;1316;60520;-83
2023/03/20 10:34:59;;;;;;;;;;;;;;;18.60;33.98;101085.23;102480;1320;72568;-82
2023/03/20 10:37:31;;;;;;;;;;;;;;;18.63;33.99;101086.54;102256;1317;75103;-85
2023/03/20 10:40:03;;;;;;;;;;;;;;;18.63;33.96;101085.22;103275;1318;61194;-83
2023/03/20 10:42:30;;;;;;;;;;;;;;;18.64;33.94;101082.87;102485;1317;60633;-83
2023/03/20 10:45:01;;;;;;;;;;;;;;;18.66;33.92;101086.70;102570;1322;60431;-83
2023/03/20 10:47:27;;;;;;;;;;;;;;;18.65;33.95;101082.47;102863;1318;74826;-82
2023/03/20 10:50:00;;;;;;;;;;;;;;;18.66;33.95;101082.05;102798;1319;62189;-82
2023/03/20 10:52:31;;;;;;;;;;;;;;;18.67;33.98;101077.55;102813;1318;60605;-83
2023/03/20 10:55:00;;;;;;;;;;;;;;;18.62;33.83;101072.27;102789;1317;72579;-83
2023/03/20 10:57:26;;;;;;;;;;;;;;;18.61;33.89;101073.06;103204;1314;76664;-82
2023/03/20 10:59:55;;;;;;;;;;;;;;;18.63;33.87;101071.88;103141;1314;62316;-82
2023/03/20 11:02:22;;;;;;;;;;;;;;;18.66;33.90;101064.23;102871;1316;61913;-82
2023/03/20 11:04:47;;;;;;;;;;;;;;;18.68;33.81;101065.01;102991;1308;73624;-81
2023/03/20 11:07:33;;;;;;;;;;;;;;;18.70;33.81;101060.96;102767;1310;62200;-82
2023/03/20 11:10:04;;;;;;;;;;;;;;;18.73;33.75;101062.23;102204;1317;62258;-83
2023/03/20 11:12:31;;;;;;;;;;;;;;;18.75;33.76;101057.09;102304;1318;62168;-82
2023/03/20 11:14:58;;;;;;;;;;;;;;;18.75;33.67;101051.91;102516;1317;62260;-83
2023/03/20 11:17:27;;;;;;;;;;;;;;;18.75;33.62;101046.57;102163;1317;75286;-84
2023/03/20 11:19:52;;;;;;;;;;;;;;;18.76;33.54;101049.04;102307;1320;62178;-83
2023/03/20 11:22:22;;;;;;;;;;;;;;;18.78;33.61;101038.59;102258;1318;61478;-83
2023/03/20 11:24:51;;;;;;;;;;;;;;;18.78;33.58;101034.81;102423;1317;72236;-83
2023/03/20 11:27:17;;;;;;;;;;;;;;;18.80;33.46;101031.19;102694;1320;76398;-83
2023/03/20 11:29:43;;;;;;;;;;;;;;;18.82;33.46;101031.04;102641;1317;61186;-83
2023/03/20 11:32:24;;;;;;;;;;;;;;;18.81;33.53;101023.29;102639;1317;62254;-82
2023/03/20 11:34:50;;;;;;;;;;;;;;;18.80;33.64;101017.23;102614;1315;72929;-82
2023/03/20 11:37:20;;;;;;;;;;;;;;;18.81;33.75;101015.02;102646;1317;61885;-83
2023/03/20 11:39:53;;;;;;;;;;;;;;;18.82;33.77;101013.20;102451;1319;62315;-83
2023/03/20 11:42:22;;;;;;;;;;;;;;;18.83;33.82;101011.34;102579;1317;61995;-83
2023/03/20 11:44:55;;;;;;;;;;;;;;;18.84;33.86;101012.34;102513;1317;74402;-83
2023/03/20 11:47:21;;;;;;;;;;;;;;;18.87;33.73;101009.70;102641;1312;75216;-83
2023/03/20 11:49:54;;;;;;;;;;;;;;;18.89;33.71;101004.81;103396;1311;61547;-83
2023/03/20 11:52:20;;;;;;;;;;;;;;;18.91;33.68;100997.73;102771;1311;62287;-83
2023/03/20 11:54:46;;;;;;;;;;;;;;;18.92;33.60;100995.19;102960;1314;72595;-83
2023/03/20 11:57:25;;;;;;;;;;;;;;;18.92;33.45;100990.52;102749;1313;62149;-82
2023/03/20 11:59:51;;;;;;;;;;;;;;;18.93;33.60;100987.27;102706;1310;62140;-83
2023/03/20 12:02:20;;;;;;;;;;;;;;;18.94;33.56;100984.73;102696;1311;61322;-83
2023/03/20 12:04:46;;;;;;;;;;;;;;;18.95;33.47;100980.41;102656;1310;72433;-83
2023/03/20 12:07:17;;;;;;;;;;;;;;;18.90;33.32;100978.52;102785;1314;76386;-83
2023/03/20 12:09:44;;;;;;;;;;;;;;;18.84;33.22;100975.09;102833;1309;61937;-83
2023/03/20 12:12:36;;;;;;;;;;;;;;;18.84;33.26;100971.01;103158;1308;61979;-83
2023/03/20 12:15:01;;;;;;;;;;;;;;;18.84;33.21;100969.95;102998;1314;73518;-83
2023/03/20 12:17:46;;;;;;;;;;;;;;;18.81;33.09;100966.03;103078;1313;60242;-83
2023/03/20 12:20:11;;;;;;;;;;;;;;;18.79;33.26;100964.38;103160;1309;62444;-83
2023/03/20 12:22:49;;;;;;;;;;;;;;;18.78;33.22;100960.48;103351;1309;60731;-84
2023/03/20 12:25:25;;;;;;;;;;;;;;;18.79;33.43;100957.91;103314;1314;72666;-83
2023/03/20 12:28:01;;;;;;;;;;;;;;;18.83;33.43;100956.61;103026;1308;75329;-84
2023/03/20 12:30:45;;;;;;;;;;;;;;;18.87;33.47;100951.02;103170;1312;62159;-83